Time;durP1;ratioP1;P1;durP2;ratioP2;P2;SDS_P1;SDS_P2;PMS_P1;PMS_P2;Temp;Humidity;BMP_temperature;BMP_pressure;BME280_temperature;BME280_humidity;BME280_pressure;Samples;Min_cycle;Max_cycle;Signal;HPM_P1;HPM_P2
2022/01/28 00:01:01;;;;;;;;;86.20;71.40;16.40;99.90;;;;;;5025675;28;8749;-89
2022/01/28 00:03:27;;;;;;;;;84.00;70.60;16.30;99.90;;;;;;5011016;28;8767;-89
2022/01/28 00:05:54;;;;;;;;;154.40;128.40;16.20;99.90;;;;;;5009115;28;8788;-89
2022/01/28 00:08:21;;;;;;;;;118.40;95.40;16.20;99.90;;;;;;5009723;28;8772;-89
2022/01/28 00:10:50;;;;;;;;;146.60;120.00;16.30;99.90;;;;;;5009264;28;8752;-89
2022/01/28 00:36:29;;;;;;;;;97.80;85.60;16.20;99.90;;;;;;5030048;28;8749;-87
2022/01/28 00:40:27;;;;;;;;;97.80;84.20;16.70;99.90;;;;;;5058508;28;8867;-87
2022/01/28 00:42:53;;;;;;;;;91.80;79.40;16.60;99.90;;;;;;5007040;28;8845;-90
2022/01/28 00:45:20;;;;;;;;;95.40;83.00;16.60;99.90;;;;;;5008592;28;8796;-91
2022/01/28 00:47:47;;;;;;;;;99.00;82.40;16.60;99.90;;;;;;5005141;28;8784;-87
2022/01/28 00:50:15;;;;;;;;;126.00;108.20;16.60;99.90;;;;;;5004648;28;8776;-88
2022/01/28 00:52:42;;;;;;;;;115.40;100.60;16.60;99.90;;;;;;5002470;28;8759;-90
2022/01/28 00:55:09;;;;;;;;;107.80;100.00;16.60;99.90;;;;;;5001846;28;8847;-87
2022/01/28 00:57:36;;;;;;;;;100.00;86.40;16.80;99.90;;;;;;5003257;28;8767;-89
2022/01/28 01:00:07;;;;;;;;;83.40;75.60;16.90;99.90;;;;;;5001953;28;8794;-88
2022/01/28 01:02:34;;;;;;;;;85.80;76.80;17.10;99.90;;;;;;5001944;28;8782;-87
2022/01/28 01:05:00;;;;;;;;;86.60;74.40;17.20;99.90;;;;;;5001546;28;8786;-88
2022/01/28 01:07:30;;;;;;;;;84.40;74.80;17.20;99.90;;;;;;5000890;28;9530;-86
2022/01/28 01:09:57;;;;;;;;;87.00;79.60;17.30;99.90;;;;;;5001599;28;8842;-86
2022/01/28 01:12:26;;;;;;;;;94.20;83.80;17.30;99.90;;;;;;5000831;28;8771;-86
2022/01/28 01:14:53;;;;;;;;;92.80;81.60;17.40;99.90;;;;;;5001017;28;8870;-85
2022/01/28 01:17:43;;;;;;;;;85.60;75.00;17.50;99.90;;;;;;4993078;28;8860;-86
2022/01/28 01:20:20;;;;;;;;;87.60;77.40;17.50;99.90;;;;;;5008061;28;8790;-89
2022/01/28 01:25:42;;;;;;;;;82.20;74.80;17.70;99.90;;;;;;5005226;28;8779;-87
2022/01/28 01:28:11;;;;;;;;;73.80;56.00;17.80;99.90;;;;;;5007024;28;8825;-88
2022/01/28 01:30:42;;;;;;;;;80.60;64.80;17.90;99.90;;;;;;5001103;28;8822;-89
2022/01/28 01:33:10;;;;;;;;;68.80;54.00;18.00;99.90;;;;;;5002642;28;9441;-89
2022/01/28 01:35:37;;;;;;;;;80.00;65.40;18.10;99.90;;;;;;5001739;28;8801;-93
2022/01/28 01:38:05;;;;;;;;;75.80;62.20;18.10;99.90;;;;;;5001979;28;8806;-91
2022/01/28 01:43:48;;;;;;;;;71.80;54.00;18.30;99.90;;;;;;5004882;28;9019;-90
2022/01/28 01:54:11;;;;;;;;;75.20;64.00;18.60;99.90;;;;;;5038108;28;8784;-92
2022/01/28 01:56:39;;;;;;;;;81.20;70.40;18.80;99.90;;;;;;5020673;28;8809;-87
2022/01/28 01:59:07;;;;;;;;;72.40;54.80;18.90;99.90;;;;;;5021825;28;8854;-88
2022/01/28 02:01:34;;;;;;;;;78.60;66.60;18.90;99.90;;;;;;5021228;28;8754;-88
2022/01/28 02:04:01;;;;;;;;;78.40;66.60;19.00;99.90;;;;;;5021529;28;8742;-88
2022/01/28 02:06:28;;;;;;;;;75.60;57.00;19.10;99.90;;;;;;5020569;28;8765;-90
2022/01/28 02:08:55;;;;;;;;;71.40;57.20;19.20;99.90;;;;;;5021815;28;8777;-91
2022/01/28 02:11:21;;;;;;;;;73.00;55.80;19.20;99.90;;;;;;5019455;28;8800;-89
2022/01/28 02:13:50;;;;;;;;;69.20;53.20;19.30;99.90;;;;;;5020229;28;8773;-89
2022/01/28 02:16:17;;;;;;;;;69.80;54.40;19.40;99.90;;;;;;5004601;28;8746;-90
2022/01/28 02:18:43;;;;;;;;;69.00;53.00;19.40;99.90;;;;;;5019514;28;8798;-88
2022/01/28 02:21:13;;;;;;;;;74.00;60.60;19.50;99.90;;;;;;5014506;28;9460;-88
2022/01/28 02:23:42;;;;;;;;;71.80;55.60;19.60;99.90;;;;;;5011233;28;8756;-89
2022/01/28 02:26:14;;;;;;;;;68.20;54.20;19.70;99.90;;;;;;5014222;28;8798;-91
2022/01/28 02:28:42;;;;;;;;;73.20;53.20;19.80;99.90;;;;;;5003113;28;9080;-88
2022/01/28 02:31:09;;;;;;;;;68.20;55.00;19.80;99.90;;;;;;5003407;28;8791;-88
2022/01/28 02:33:36;;;;;;;;;70.20;56.00;20.00;99.90;;;;;;5018561;28;8785;-91
2022/01/28 02:36:06;;;;;;;;;71.00;54.00;20.10;99.90;;;;;;5001533;28;8829;-89
2022/01/28 02:38:33;;;;;;;;;65.80;50.60;20.20;99.90;;;;;;5002895;28;8884;-88
2022/01/28 02:41:02;;;;;;;;;62.60;50.80;20.30;99.90;;;;;;5001958;28;8762;-91
2022/01/28 02:43:47;;;;;;;;;66.00;51.00;20.30;99.90;;;;;;5001801;28;8779;-87
2022/01/28 02:46:16;;;;;;;;;61.75;48.50;20.20;99.90;;;;;;5005387;28;8759;-89
2022/01/28 02:49:00;;;;;;;;;55.50;44.25;20.40;99.90;;;;;;5001618;28;8782;-89
2022/01/28 02:51:27;;;;;;;;;58.25;46.00;20.40;99.90;;;;;;5020046;28;8789;-90
2022/01/28 02:54:00;;;;;;;;;33.75;29.75;20.40;99.90;;;;;;5001445;28;8790;-91
2022/01/28 02:58:56;;;;;;;;;54.00;43.25;20.60;99.90;;;;;;5001854;28;9094;-90
2022/01/28 03:01:23;;;;;;;;;53.75;41.50;20.80;99.90;;;;;;5001176;28;8747;-90
2022/01/28 03:03:50;;;;;;;;;54.25;41.00;20.70;99.90;;;;;;5021298;28;8757;-89
2022/01/28 03:06:19;;;;;;;;;54.75;43.50;20.70;99.90;;;;;;5020691;28;8917;-90
2022/01/28 03:08:56;;;;;;;;;55.00;44.25;20.80;99.90;;;;;;5020506;28;8776;-91
2022/01/28 03:14:02;;;;;;;;;54.25;45.00;21.00;99.90;;;;;;5020782;28;8749;-89
2022/01/28 03:16:31;;;;;;;;;55.25;45.25;21.10;99.90;;;;;;5022403;28;8773;-91
2022/01/28 03:24:01;;;;;;;;;61.00;48.50;21.50;99.90;;;;;;5017444;28;8791;-95
2022/01/28 03:26:28;;;;;;;;;59.75;45.50;21.50;99.90;;;;;;5022372;28;8771;-90
2022/01/28 03:28:55;;;;;;;;;58.25;47.75;21.60;99.90;;;;;;5006433;28;8865;-95
2022/01/28 03:31:25;;;;;;;;;58.75;47.50;21.80;99.90;;;;;;5022236;28;8757;-91
2022/01/28 03:33:52;;;;;;;;;58.75;46.00;21.80;99.90;;;;;;5006115;28;8799;-91
2022/01/28 03:36:18;;;;;;;;;55.75;43.75;21.90;99.90;;;;;;5024842;28;8789;-88
2022/01/28 03:38:48;;;;;;;;;62.25;47.25;22.00;99.90;;;;;;5024810;28;8781;-90
2022/01/28 03:41:17;;;;;;;;;49.50;40.25;22.10;99.90;;;;;;5042532;28;8789;-90
2022/01/28 03:43:45;;;;;;;;;59.25;46.50;22.00;99.90;;;;;;5040623;28;8738;-87
2022/01/28 03:46:12;;;;;;;;;54.75;41.50;22.00;99.90;;;;;;5041051;28;8752;-88
2022/01/28 03:48:39;;;;;;;;;62.25;48.75;22.20;99.90;;;;;;5039096;28;8784;-88
2022/01/28 03:51:06;;;;;;;;;68.00;50.00;22.40;99.90;;;;;;5035415;28;8784;-90
2022/01/28 03:53:33;;;;;;;;;59.00;47.25;22.60;99.90;;;;;;5020185;28;8795;-90
2022/01/28 03:56:01;;;;;;;;;60.75;48.00;22.70;99.90;;;;;;5021766;28;8791;-91
2022/01/28 03:58:28;;;;;;;;;62.50;47.50;22.80;99.90;;;;;;5021069;28;8756;-91
2022/01/28 04:00:56;;;;;;;;;58.75;45.75;22.90;99.90;;;;;;5006934;28;8745;-93
2022/01/28 04:03:39;;;;;;;;;63.50;48.25;23.00;99.90;;;;;;5005818;28;8757;-92
2022/01/28 04:11:39;;;;;;;;;54.25;41.50;23.10;99.90;;;;;;5022231;28;8895;-89
2022/01/28 04:14:18;;;;;;;;;57.75;47.25;23.30;99.90;;;;;;5019275;28;8879;-86
2022/01/28 04:19:31;;;;;;;;;58.00;43.50;23.50;99.90;;;;;;5022532;28;8799;-90
2022/01/28 04:21:58;;;;;;;;;62.75;47.00;23.40;99.90;;;;;;5023061;28;8785;-92
2022/01/28 04:24:25;;;;;;;;;58.50;46.25;23.40;99.90;;;;;;5021613;28;8797;-87
2022/01/28 04:26:51;;;;;;;;;61.00;46.75;23.50;99.90;;;;;;5038480;28;8801;-86
2022/01/28 04:29:21;;;;;;;;;53.00;43.75;23.70;99.90;;;;;;5025885;28;8823;-88
2022/01/28 04:31:48;;;;;;;;;55.75;44.50;23.90;99.90;;;;;;5025861;28;8848;-85
2022/01/28 04:34:16;;;;;;;;;55.50;41.50;24.00;99.90;;;;;;5025172;28;8758;-87
2022/01/28 04:45:11;;;;;;;;;52.75;42.50;24.60;99.10;;;;;;5017576;28;8792;-85
2022/01/28 05:04:02;;;;;;;;;55.50;44.25;25.00;97.70;;;;;;5023209;28;8769;-87
2022/01/28 05:25:30;;;;;;;;;51.00;41.25;25.60;96.20;;;;;;5024623;28;8760;-94
2022/01/28 05:27:49;;;;;;;;;51.50;42.25;25.70;96.20;;;;;;5024054;28;8898;-87
2022/01/28 05:30:16;;;;;;;;;52.00;41.25;25.80;96.30;;;;;;5038174;28;8780;-87
2022/01/28 05:32:43;;;;;;;;;45.50;38.75;25.80;95.10;;;;;;5020790;28;8779;-87
2022/01/28 05:35:10;;;;;;;;;46.25;40.25;25.90;96.40;;;;;;5019432;28;8783;-88
2022/01/28 05:37:37;;;;;;;;;42.00;35.50;25.90;95.20;;;;;;5037768;28;8798;-86
2022/01/28 05:40:04;;;;;;;;;48.00;38.50;26.10;95.40;;;;;;5024322;28;8770;-88
2022/01/28 05:42:31;;;;;;;;;45.50;36.00;26.20;94.90;;;;;;5040135;28;8800;-86
2022/01/28 05:44:57;;;;;;;;;46.75;37.00;26.20;94.70;;;;;;5056587;28;8875;-87
2022/01/28 05:47:24;;;;;;;;;47.50;39.50;26.40;94.90;;;;;;5039240;28;8773;-86
2022/01/28 05:49:51;;;;;;;;;50.75;40.00;26.40;94.20;;;;;;5040166;28;8734;-85
2022/01/28 05:52:18;;;;;;;;;49.25;39.50;26.40;93.60;;;;;;5025124;28;9083;-86
2022/01/28 05:54:45;;;;;;;;;48.75;38.25;26.40;93.60;;;;;;5026252;28;8745;-86
2022/01/28 05:57:12;;;;;;;;;46.50;33.25;26.50;94.30;;;;;;5020936;28;8776;-87
2022/01/28 05:59:39;;;;;;;;;43.00;34.25;26.50;94.00;;;;;;5019945;28;8784;-87
2022/01/28 06:02:06;;;;;;;;;47.75;37.50;26.60;93.70;;;;;;5022128;28;8810;-87
2022/01/28 06:04:36;;;;;;;;;50.75;39.00;26.70;93.70;;;;;;5020657;28;8740;-86
2022/01/28 06:07:03;;;;;;;;;44.75;35.75;26.80;93.50;;;;;;5005547;28;9681;-87
2022/01/28 06:09:29;;;;;;;;;44.25;36.00;27.00;93.00;;;;;;5020237;28;8875;-87
2022/01/28 06:11:56;;;;;;;;;43.50;33.25;27.10;92.40;;;;;;5021359;28;8748;-87
2022/01/28 06:14:23;;;;;;;;;41.25;34.25;27.10;92.30;;;;;;5005254;28;8780;-86
2022/01/28 06:16:52;;;;;;;;;31.50;29.50;27.20;92.80;;;;;;5037195;28;9422;-88
2022/01/28 06:19:19;;;;;;;;;41.50;32.00;27.30;90.90;;;;;;5021622;28;8799;-86
2022/01/28 06:21:46;;;;;;;;;40.00;34.50;27.30;91.10;;;;;;5025127;28;8773;-87
2022/01/28 06:24:13;;;;;;;;;38.25;31.00;27.30;92.10;;;;;;5025339;28;8758;-85
2022/01/28 06:26:40;;;;;;;;;38.50;33.75;27.50;89.60;;;;;;5041628;28;8766;-86
2022/01/28 06:29:07;;;;;;;;;34.50;32.00;28.20;87.90;;;;;;5042927;28;8778;-90
2022/01/28 06:31:34;;;;;;;;;44.50;32.00;28.30;86.30;;;;;;5025703;28;8734;-88
2022/01/28 06:34:00;;;;;;;;;31.25;29.00;28.40;86.20;;;;;;5026777;28;8822;-87
2022/01/28 06:36:27;;;;;;;;;37.75;29.50;29.10;84.00;;;;;;5058187;28;8789;-87
2022/01/28 06:38:54;;;;;;;;;32.00;25.50;29.30;81.40;;;;;;5061174;28;8745;-85
2022/01/28 06:41:21;;;;;;;;;37.00;31.25;29.00;81.20;;;;;;5058301;28;8757;-85
2022/01/28 06:43:48;;;;;;;;;30.00;29.25;29.20;83.10;;;;;;5041137;28;8766;-85
2022/01/28 06:46:15;;;;;;;;;32.25;29.50;29.40;81.10;;;;;;5058027;28;8807;-88
2022/01/28 06:48:41;;;;;;;;;38.25;29.75;29.40;81.90;;;;;;5040671;28;9434;-87
2022/01/28 06:51:08;;;;;;;;;26.75;23.50;29.50;80.70;;;;;;5053491;28;8765;-87
2022/01/28 06:53:35;;;;;;;;;24.25;23.00;29.40;78.60;;;;;;5053632;28;8729;-88
2022/01/28 06:56:02;;;;;;;;;26.50;24.25;29.30;80.50;;;;;;5053638;28;8771;-88
2022/01/28 06:58:28;;;;;;;;;27.50;23.75;29.60;78.50;;;;;;5036504;28;8724;-87
2022/01/28 07:00:55;;;;;;;;;26.25;26.00;29.50;76.40;;;;;;5037688;28;8716;-87
2022/01/28 07:03:22;;;;;;;;;20.50;19.00;29.50;76.70;;;;;;5019820;28;9393;-84
2022/01/28 07:05:49;;;;;;;;;28.25;23.25;29.60;77.70;;;;;;5038513;28;8800;-87
2022/01/28 07:08:16;;;;;;;;;29.75;25.75;30.20;73.80;;;;;;5056563;28;8753;-86
2022/01/28 07:10:42;;;;;;;;;21.25;19.00;30.30;74.80;;;;;;5056332;28;8808;-86
2022/01/28 07:13:09;;;;;;;;;28.50;22.75;29.80;75.30;;;;;;5040714;28;8867;-86
2022/01/28 07:15:36;;;;;;;;;24.00;19.80;30.20;71.80;;;;;;5056173;28;8816;-87
2022/01/28 07:18:03;;;;;;;;;14.50;10.75;30.30;72.80;;;;;;5057268;28;8880;-84
2022/01/28 07:20:39;;;;;;;;;19.25;16.25;30.20;72.20;;;;;;5039756;28;8762;-87
2022/01/28 07:23:06;;;;;;;;;11.75;11.00;30.10;73.40;;;;;;5038916;28;8807;-88
2022/01/28 07:25:33;;;;;;;;;15.50;14.50;30.70;67.90;;;;;;5037770;28;8787;-87
2022/01/28 07:28:00;;;;;;;;;16.50;15.25;31.00;67.00;;;;;;5038240;28;8826;-87
2022/01/28 07:30:27;;;;;;;;;16.75;15.25;31.10;66.20;;;;;;5021002;28;8886;-86
2022/01/28 07:32:54;;;;;;;;;15.75;12.75;30.80;66.60;;;;;;5037058;28;8891;-87
2022/01/28 07:35:20;;;;;;;;;17.00;13.50;30.90;65.70;;;;;;5037678;28;8776;-89
2022/01/28 07:37:47;;;;;;;;;14.25;11.75;30.70;66.40;;;;;;5052908;28;8745;-86
2022/01/28 07:40:14;;;;;;;;;13.25;12.00;30.40;68.00;;;;;;5055311;28;8760;-87
2022/01/28 07:42:41;;;;;;;;;14.80;14.40;30.30;66.20;;;;;;5071157;28;8791;-87
2022/01/28 07:45:09;;;;;;;;;18.50;13.00;30.50;66.50;;;;;;5054948;28;8760;-86
2022/01/28 07:47:38;;;;;;;;;12.25;11.00;31.00;65.90;;;;;;5037793;28;8785;-86
2022/01/28 07:50:06;;;;;;;;;13.25;11.00;31.20;64.30;;;;;;5037264;28;8787;-88
2022/01/28 07:52:33;;;;;;;;;9.20;8.00;31.10;62.50;;;;;;5053144;28;8733;-86
2022/01/28 07:55:00;;;;;;;;;9.00;8.25;30.80;63.00;;;;;;5051749;28;8800;-87
2022/01/28 07:57:27;;;;;;;;;10.60;8.40;30.80;62.60;;;;;;5036123;28;8831;-86
2022/01/28 07:59:54;;;;;;;;;8.20;7.80;30.60;61.00;;;;;;5053175;28;9417;-85
2022/01/28 08:02:20;;;;;;;;;8.00;7.20;30.50;62.30;;;;;;5053199;28;8871;-86
2022/01/28 08:04:47;;;;;;;;;8.60;8.40;30.50;62.00;;;;;;5056646;28;8767;-87
2022/01/28 08:07:14;;;;;;;;;9.75;7.75;30.50;62.30;;;;;;5074929;28;8776;-87
2022/01/28 08:09:41;;;;;;;;;12.50;10.50;30.40;61.90;;;;;;5039986;28;8741;-85
2022/01/28 08:12:08;;;;;;;;;8.00;7.20;30.40;62.00;;;;;;5040097;28;8760;-86
2022/01/28 08:14:34;;;;;;;;;12.20;10.20;30.40;62.50;;;;;;5056056;28;8761;-86
2022/01/28 08:17:01;;;;;;;;;11.40;9.80;30.40;62.40;;;;;;5056282;28;8760;-88
2022/01/28 08:19:28;;;;;;;;;10.50;10.50;30.50;63.60;;;;;;5055296;28;8776;-89
2022/01/28 08:21:55;;;;;;;;;7.25;6.75;30.40;63.90;;;;;;5048024;28;8740;-86
2022/01/28 08:24:21;;;;;;;;;11.60;11.40;30.40;61.90;;;;;;5022790;28;8787;-88
2022/01/28 08:26:48;;;;;;;;;11.00;9.00;30.40;62.90;;;;;;5022518;28;8752;-87
2022/01/28 08:29:15;;;;;;;;;13.75;10.75;30.50;62.90;;;;;;5022892;28;8799;-86
2022/01/28 08:31:42;;;;;;;;;14.00;11.20;30.40;62.60;;;;;;5022038;28;8867;-87
2022/01/28 08:34:08;;;;;;;;;11.75;11.00;30.60;65.00;;;;;;5006222;28;8728;-89
2022/01/28 08:36:35;;;;;;;;;14.75;12.50;30.60;64.00;;;;;;5013467;28;8758;-86
2022/01/28 08:39:04;;;;;;;;;13.25;12.75;30.60;63.10;;;;;;5058790;28;8762;-83
2022/01/28 08:41:32;;;;;;;;;13.25;12.75;30.60;63.80;;;;;;5060096;28;8746;-84
2022/01/28 08:43:59;;;;;;;;;15.75;14.75;30.70;63.30;;;;;;5058193;28;9545;-87
2022/01/28 08:46:26;;;;;;;;;13.25;12.00;30.50;63.30;;;;;;5058176;28;8804;-88
2022/01/28 08:48:53;;;;;;;;;15.00;14.50;30.40;63.70;;;;;;5042727;28;8856;-86
2022/01/28 08:51:20;;;;;;;;;16.25;15.00;30.40;64.70;;;;;;5037887;28;8713;-84
2022/01/28 08:53:46;;;;;;;;;13.00;11.00;30.50;61.60;;;;;;5021870;28;8752;-85
2022/01/28 08:56:13;;;;;;;;;15.75;15.00;30.40;63.50;;;;;;5021963;28;8740;-86
2022/01/28 08:58:40;;;;;;;;;14.75;13.75;30.30;63.50;;;;;;5005431;28;8796;-86
2022/01/28 09:01:07;;;;;;;;;10.00;10.00;30.30;64.60;;;;;;5022385;28;8782;-86
2022/01/28 09:03:34;;;;;;;;;14.20;14.20;30.30;65.30;;;;;;5022785;28;8842;-87
2022/01/28 09:06:00;;;;;;;;;21.00;17.80;30.30;63.90;;;;;;5025725;28;8863;-86
2022/01/28 09:08:27;;;;;;;;;18.50;16.25;30.30;63.60;;;;;;5041443;28;8899;-87
2022/01/28 09:10:59;;;;;;;;;14.80;14.00;30.20;64.60;;;;;;5058119;28;8846;-86
2022/01/28 09:13:37;;;;;;;;;18.00;14.00;30.30;64.70;;;;;;5041890;28;9457;-87
2022/01/28 09:16:04;;;;;;;;;17.75;15.25;30.20;65.20;;;;;;5028420;28;8872;-88
2022/01/28 09:18:31;;;;;;;;;18.50;17.50;30.00;63.30;;;;;;5040817;28;8825;-85
2022/01/28 09:20:58;;;;;;;;;17.80;13.60;30.00;63.90;;;;;;5021024;28;8769;-86
2022/01/28 09:23:24;;;;;;;;;14.50;14.50;30.10;64.30;;;;;;5053857;28;8804;-86
2022/01/28 09:25:52;;;;;;;;;17.40;14.60;30.20;63.90;;;;;;5037648;28;8737;-86
2022/01/28 09:28:19;;;;;;;;;13.00;12.50;30.30;64.00;;;;;;5037856;28;8779;-86
2022/01/28 09:30:46;;;;;;;;;16.75;16.25;30.30;64.80;;;;;;5053649;28;8887;-88
2022/01/28 09:33:13;;;;;;;;;18.50;17.75;30.20;65.10;;;;;;5037527;28;9479;-86
2022/01/28 09:35:41;;;;;;;;;22.00;18.00;30.20;63.90;;;;;;5037860;28;8844;-88
2022/01/28 09:38:08;;;;;;;;;16.75;14.75;30.10;63.90;;;;;;5041167;28;8762;-87
2022/01/28 09:40:35;;;;;;;;;17.25;16.50;30.10;64.70;;;;;;5040708;28;8761;-88
2022/01/28 09:43:04;;;;;;;;;19.25;16.25;30.10;64.80;;;;;;5024966;28;8730;-86
2022/01/28 09:45:31;;;;;;;;;17.00;15.50;30.10;65.60;;;;;;5025081;28;8746;-87
2022/01/28 09:47:59;;;;;;;;;19.75;17.50;30.10;65.00;;;;;;5041239;28;8764;-85
2022/01/28 09:50:31;;;;;;;;;17.50;15.00;30.10;65.90;;;;;;5041387;28;8871;-86
2022/01/28 09:52:58;;;;;;;;;16.75;14.75;30.20;63.90;;;;;;5033576;28;8756;-86
2022/01/28 09:55:25;;;;;;;;;18.00;15.50;30.10;65.00;;;;;;5020422;28;8796;-87
2022/01/28 09:57:59;;;;;;;;;18.75;16.00;30.10;64.20;;;;;;5037982;28;8790;-87
2022/01/28 10:00:27;;;;;;;;;19.50;16.75;30.00;65.60;;;;;;5021103;28;8851;-85
2022/01/28 10:03:03;;;;;;;;;12.50;12.25;30.00;65.00;;;;;;5020574;28;8764;-88
2022/01/28 10:05:31;;;;;;;;;14.25;14.25;30.00;64.50;;;;;;5022219;28;8768;-87
2022/01/28 10:08:20;;;;;;;;;18.25;14.00;30.00;64.20;;;;;;5037496;28;8751;-88
2022/01/28 10:10:58;;;;;;;;;17.75;16.50;30.00;64.80;;;;;;5021215;28;8771;-87
2022/01/28 10:13:44;;;;;;;;;19.40;16.60;30.00;66.60;;;;;;5037026;28;8720;-87
2022/01/28 10:16:27;;;;;;;;;18.50;14.00;29.90;67.40;;;;;;5022499;28;8769;-88
2022/01/28 10:18:58;;;;;;;;;15.60;14.80;29.80;67.50;;;;;;5037573;28;8799;-88
2022/01/28 10:21:44;;;;;;;;;12.80;10.00;29.80;67.20;;;;;;5043953;28;8831;-88
2022/01/28 10:24:29;;;;;;;;;17.60;14.40;29.70;65.20;;;;;;5041968;28;8779;-87
2022/01/28 10:27:07;;;;;;;;;9.75;9.50;29.70;65.80;;;;;;5056289;28;8765;-88
2022/01/28 10:29:43;;;;;;;;;15.00;13.50;29.70;64.80;;;;;;5041396;28;8758;-88
2022/01/28 10:32:12;;;;;;;;;16.75;15.25;29.60;67.10;;;;;;5025356;28;8777;-88
2022/01/28 10:34:40;;;;;;;;;17.60;15.80;29.50;70.30;;;;;;5023196;28;8770;-89
2022/01/28 10:37:18;;;;;;;;;17.60;14.60;29.40;69.60;;;;;;5057672;28;8924;-89
2022/01/28 10:39:49;;;;;;;;;15.80;15.00;29.30;70.20;;;;;;5040283;28;8805;-88
2022/01/28 10:42:20;;;;;;;;;17.75;15.75;29.30;70.00;;;;;;5056348;28;9529;-88
2022/01/28 10:44:53;;;;;;;;;16.00;15.00;29.30;70.50;;;;;;5056565;28;8762;-88
2022/01/28 10:47:37;;;;;;;;;15.25;14.50;29.20;69.70;;;;;;5056416;28;8827;-88
2022/01/28 10:50:27;;;;;;;;;15.75;13.50;29.10;69.40;;;;;;5056110;28;9477;-88
2022/01/28 10:53:06;;;;;;;;;10.50;9.50;29.00;69.90;;;;;;5028897;28;8763;-89
2022/01/28 10:55:37;;;;;;;;;11.25;11.25;28.70;68.50;;;;;;5020374;28;8780;-89
2022/01/28 10:58:10;;;;;;;;;22.50;18.00;28.50;72.80;;;;;;5005019;28;8846;-87
2022/01/28 11:00:42;;;;;;;;;30.00;26.75;28.30;75.00;;;;;;5019387;28;8881;-87
2022/01/28 11:03:17;;;;;;;;;31.25;24.75;28.10;75.10;;;;;;5004149;28;8764;-88
2022/01/28 11:05:45;;;;;;;;;13.00;10.00;27.90;74.50;;;;;;5005997;28;8847;-88
2022/01/28 11:08:15;;;;;;;;;23.25;18.75;27.80;74.30;;;;;;5039168;28;8808;-88
2022/01/28 11:10:43;;;;;;;;;22.25;19.25;27.70;74.50;;;;;;5039240;28;8761;-87
2022/01/28 11:13:09;;;;;;;;;20.00;18.00;27.50;74.30;;;;;;5056400;28;8734;-86
2022/01/28 11:15:36;;;;;;;;;22.25;16.50;27.40;72.60;;;;;;5038782;28;8773;-87
2022/01/28 11:18:04;;;;;;;;;20.75;17.75;27.40;71.80;;;;;;5054857;28;8773;-87
2022/01/28 11:20:54;;;;;;;;;17.25;15.75;27.30;70.80;;;;;;5055097;28;8844;-87
2022/01/28 11:23:45;;;;;;;;;16.25;15.00;27.20;70.20;;;;;;5037035;28;8838;-88
2022/01/28 11:26:35;;;;;;;;;15.20;14.60;27.10;71.10;;;;;;5052473;28;8771;-87
2022/01/28 11:29:12;;;;;;;;;18.00;14.25;27.00;72.50;;;;;;5035783;28;8867;-87
2022/01/28 11:31:52;;;;;;;;;30.25;26.50;26.90;71.30;;;;;;5035738;28;8889;-87
2022/01/28 11:34:27;;;;;;;;;41.25;30.00;26.80;70.60;;;;;;5035431;28;8812;-87
2022/01/28 11:36:58;;;;;;;;;34.50;27.75;26.70;70.60;;;;;;5011260;28;8833;-87
2022/01/28 11:39:33;;;;;;;;;21.00;14.50;26.60;71.00;;;;;;5060179;28;8834;-88
2022/01/28 11:42:15;;;;;;;;;22.60;17.20;26.50;72.50;;;;;;5043369;28;8797;-89
2022/01/28 11:44:54;;;;;;;;;17.40;15.60;26.40;73.40;;;;;;5043591;28;8754;-88
2022/01/28 11:47:28;;;;;;;;;25.50;16.25;26.30;74.90;;;;;;5059609;28;9451;-87
2022/01/28 11:49:58;;;;;;;;;19.75;16.75;26.20;76.90;;;;;;5060044;28;8742;-88
2022/01/28 11:52:27;;;;;;;;;18.25;16.00;26.00;77.30;;;;;;5059273;28;8778;-87
2022/01/28 11:54:54;;;;;;;;;17.00;13.75;26.00;76.60;;;;;;5060719;28;8809;-88
2022/01/28 11:57:23;;;;;;;;;24.50;17.25;25.90;76.60;;;;;;5043109;28;8758;-87
2022/01/28 11:59:49;;;;;;;;;15.80;13.80;25.90;76.50;;;;;;5026835;28;8798;-88
2022/01/28 12:02:17;;;;;;;;;22.75;19.75;25.80;79.80;;;;;;5026779;28;8846;-88
2022/01/28 12:04:44;;;;;;;;;33.50;25.50;25.80;79.70;;;;;;5059349;28;8765;-87
2022/01/28 12:07:24;;;;;;;;;26.25;22.50;25.70;77.90;;;;;;5013530;28;8900;-87
2022/01/28 12:09:54;;;;;;;;;29.00;23.50;25.60;77.60;;;;;;5006708;28;8847;-87
2022/01/28 12:12:47;;;;;;;;;79.60;61.20;25.60;75.80;;;;;;5022284;28;8857;-87
2022/01/28 12:15:16;;;;;;;;;75.00;56.80;25.60;77.00;;;;;;5040949;28;8776;-88
2022/01/28 12:17:52;;;;;;;;;50.75;39.75;25.50;81.40;;;;;;5023331;28;8760;-88
2022/01/28 12:20:35;;;;;;;;;56.25;43.25;25.20;87.50;;;;;;5022404;28;8800;-89
2022/01/28 12:23:10;;;;;;;;;43.25;34.50;25.00;87.30;;;;;;5008329;28;8764;-87
2022/01/28 12:25:37;;;;;;;;;41.75;33.00;25.00;84.50;;;;;;5038837;28;8764;-88
2022/01/28 12:28:20;;;;;;;;;40.00;33.25;25.00;82.40;;;;;;5055782;28;8776;-86
2022/01/28 12:30:49;;;;;;;;;44.50;35.25;25.00;81.90;;;;;;5023196;28;8873;-87
2022/01/28 12:33:21;;;;;;;;;45.25;34.75;25.10;80.50;;;;;;5038342;28;9539;-85
2022/01/28 12:35:50;;;;;;;;;41.75;35.00;25.10;77.10;;;;;;5024326;28;9152;-85
2022/01/28 12:38:21;;;;;;;;;50.50;38.25;25.10;77.90;;;;;;5042141;28;8773;-85
2022/01/28 12:40:52;;;;;;;;;46.25;35.50;25.20;79.30;;;;;;5058269;28;8794;-85
2022/01/28 12:43:19;;;;;;;;;46.75;37.00;25.10;80.60;;;;;;5059161;28;8834;-86
2022/01/28 12:46:00;;;;;;;;;51.25;39.50;25.10;80.60;;;;;;5041932;28;8819;-86
2022/01/28 12:48:27;;;;;;;;;54.75;41.50;25.00;81.70;;;;;;5040223;28;8785;-84
2022/01/28 12:50:55;;;;;;;;;58.25;45.50;24.80;84.40;;;;;;5054719;28;8899;-85
2022/01/28 12:53:39;;;;;;;;;58.25;43.00;24.60;83.40;;;;;;5022763;28;8760;-85
2022/01/28 12:56:07;;;;;;;;;51.75;41.25;24.60;82.70;;;;;;5002328;28;8790;-85
2022/01/28 12:58:38;;;;;;;;;56.50;43.00;24.50;82.60;;;;;;5003808;28;8786;-84
2022/01/28 13:01:09;;;;;;;;;56.50;43.25;24.50;82.50;;;;;;5023719;28;8780;-84
2022/01/28 13:03:53;;;;;;;;;56.25;39.50;24.40;83.50;;;;;;5005871;28;8767;-84
2022/01/28 13:06:40;;;;;;;;;44.75;37.50;24.40;82.80;;;;;;5017648;28;8824;-84
2022/01/28 13:09:19;;;;;;;;;51.00;38.50;24.30;81.90;;;;;;5046539;28;8823;-84
2022/01/28 13:11:46;;;;;;;;;44.00;33.75;24.30;81.90;;;;;;5060817;28;8754;-85
2022/01/28 13:14:14;;;;;;;;;43.25;35.25;24.30;81.70;;;;;;5060971;28;8757;-84
2022/01/28 13:16:45;;;;;;;;;51.00;39.25;24.30;80.80;;;;;;5060915;28;8742;-85
2022/01/28 13:19:13;;;;;;;;;39.25;32.00;24.40;80.30;;;;;;5062232;28;8859;-86
2022/01/28 13:21:41;;;;;;;;;48.00;37.00;24.40;80.00;;;;;;5061500;28;8808;-87
2022/01/28 13:24:07;;;;;;;;;47.25;34.75;24.40;81.70;;;;;;5028469;28;8758;-85
2022/01/28 13:26:58;;;;;;;;;51.00;39.25;24.40;81.00;;;;;;5078734;28;8758;-87
2022/01/28 13:29:51;;;;;;;;;52.50;40.50;24.40;87.00;;;;;;5042144;28;8888;-87
2022/01/28 13:32:26;;;;;;;;;52.50;41.25;24.30;90.50;;;;;;5029029;28;8754;-87
2022/01/28 13:34:58;;;;;;;;;55.25;40.50;24.00;90.50;;;;;;5044937;28;8883;-88
2022/01/28 13:37:39;;;;;;;;;47.00;37.50;23.90;89.40;;;;;;5043691;28;8770;-86
2022/01/28 13:40:31;;;;;;;;;45.75;36.50;23.80;89.40;;;;;;5044133;28;8801;-84
2022/01/28 13:43:17;;;;;;;;;46.00;37.00;23.60;88.20;;;;;;5059736;28;8762;-84
2022/01/28 13:45:58;;;;;;;;;51.00;40.75;23.50;88.70;;;;;;5042200;28;8858;-85
2022/01/28 13:48:38;;;;;;;;;48.75;37.00;23.30;87.30;;;;;;5041754;28;8765;-84
2022/01/28 13:51:05;;;;;;;;;44.25;34.75;23.50;86.20;;;;;;5053376;28;8799;-84
2022/01/28 13:56:41;;;;;;;;;54.75;41.25;23.50;87.90;;;;;;5037168;28;8952;-85
2022/01/28 13:59:20;;;;;;;;;51.25;42.00;23.40;88.00;;;;;;5016044;28;8770;-85
2022/01/28 14:01:49;;;;;;;;;49.75;38.25;23.40;87.80;;;;;;5021693;28;8811;-86
2022/01/28 14:04:35;;;;;;;;;52.75;42.00;23.40;88.20;;;;;;5021257;28;8775;-84
2022/01/28 14:07:20;;;;;;;;;52.75;42.00;23.40;88.40;;;;;;5000223;28;8799;-84
2022/01/28 14:09:47;;;;;;;;;47.75;37.50;23.30;88.70;;;;;;5040612;28;8827;-85
2022/01/28 14:12:48;;;;;;;;;56.00;42.50;23.20;88.70;;;;;;5058255;28;8773;-86
2022/01/28 14:15:33;;;;;;;;;48.25;39.00;23.20;89.40;;;;;;5058599;28;8789;-88
2022/01/28 14:18:03;;;;;;;;;51.00;39.25;23.10;92.50;;;;;;5045459;28;9596;-88
2022/01/28 14:20:30;;;;;;;;;55.75;39.75;22.80;94.70;;;;;;5058507;28;8782;-88
2022/01/28 14:22:58;;;;;;;;;50.75;38.75;22.70;94.20;;;;;;5057739;28;8746;-88
2022/01/28 14:25:25;;;;;;;;;50.50;40.00;22.60;93.10;;;;;;5025190;28;9480;-87
2022/01/28 14:28:23;;;;;;;;;52.25;38.00;22.60;92.20;;;;;;5041925;28;8750;-88
2022/01/28 14:30:42;;;;;;;;;54.50;42.00;22.70;92.00;;;;;;5042421;28;8785;-88
2022/01/28 14:33:11;;;;;;;;;53.25;40.75;22.50;92.00;;;;;;5042082;28;8780;-87
2022/01/28 14:35:43;;;;;;;;;52.00;41.00;22.50;92.30;;;;;;5024758;28;8827;-88
2022/01/28 14:38:11;;;;;;;;;57.25;40.50;22.50;92.50;;;;;;5057504;28;8824;-87